createdAt,value
2023-02-23T00:03:51.030Z,-0.02
2023-02-23T00:07:43.470Z,-0.03
2023-02-23T00:10:50.384Z,-0.06
2023-02-23T00:13:53.948Z,-0.05
2023-02-23T00:16:52.269Z,-0.11
2023-02-23T00:19:51.208Z,-0.01
2023-02-23T00:26:29.357Z,-0.05
2023-02-23T00:29:46.991Z,-0.03
2023-02-23T00:40:07.765Z,-0.06
2023-02-23T00:43:14.351Z,-0.06
2023-02-23T00:46:31.925Z,-0.09
2023-02-23T00:53:16.333Z,-0.09
2023-02-23T00:56:39.373Z,-0.12
2023-02-23T00:59:42.475Z,-0.12
2023-02-23T01:06:11.016Z,-0.11
2023-02-23T01:09:19.351Z,-0.14
2023-02-23T01:12:57.381Z,-0.17
2023-02-23T01:16:09.358Z,-0.23
2023-02-23T01:19:26.150Z,-0.24
2023-02-23T01:22:54.666Z,-0.23
2023-02-23T01:26:25.501Z,-0.27
2023-02-23T01:36:35.953Z,-0.26
2023-02-23T01:39:53.977Z,-0.27
2023-02-23T01:43:05.067Z,-0.28
2023-02-23T01:46:15.418Z,-0.30
2023-02-23T01:49:24.565Z,-0.60
2023-02-23T01:52:42.299Z,-0.35
2023-02-23T01:55:40.332Z,-0.35
2023-02-23T01:59:00.165Z,-0.37
2023-02-23T02:02:02.192Z,-0.37
2023-02-23T02:05:00.650Z,-0.38
2023-02-23T02:07:51.780Z,-0.37
2023-02-23T02:10:58.345Z,-0.36
2023-02-23T02:13:40.884Z,-0.37
2023-02-23T02:16:41.320Z,-0.37
2023-02-23T02:20:13.314Z,-0.38
2023-02-23T02:23:14.222Z,-0.40
2023-02-23T02:26:29.393Z,-0.39
2023-02-23T02:29:42.361Z,-0.41
2023-02-23T02:32:56.031Z,-0.43
2023-02-23T02:36:33.798Z,-0.43
2023-02-23T02:39:42.330Z,-0.40
2023-02-23T02:42:51.734Z,-0.41
2023-02-23T02:45:58.613Z,-0.43
2023-02-23T02:48:59.001Z,-0.42
2023-02-23T02:52:01.669Z,-0.40
2023-02-23T02:54:49.044Z,-0.46
2023-02-23T02:57:42.058Z,-0.44
2023-02-23T03:00:50.928Z,-0.45
2023-02-23T03:04:09.281Z,-0.48
2023-02-23T03:07:48.109Z,-0.50
2023-02-23T03:11:11.210Z,-0.47
2023-02-23T03:14:41.967Z,-0.45
2023-02-23T03:18:14.675Z,-0.47
2023-02-23T03:21:22.557Z,-0.50
2023-02-23T03:24:42.586Z,-0.45
2023-02-23T03:28:09.135Z,-0.45
2023-02-23T03:31:51.188Z,-0.49
2023-02-23T03:34:58.443Z,-0.49
2023-02-23T03:38:17.036Z,-0.49
2023-02-23T03:41:21.411Z,-0.52
2023-02-23T03:44:32.305Z,-0.52
2023-02-23T03:47:41.660Z,-0.55
2023-02-23T03:51:02.139Z,-0.47
2023-02-23T03:54:32.245Z,-0.43
2023-02-23T03:57:31.094Z,-0.53
2023-02-23T04:00:38.976Z,-0.51
2023-02-23T04:03:44.616Z,-0.51
2023-02-23T04:06:50.661Z,-0.56
2023-02-23T04:09:52.953Z,-0.54
2023-02-23T04:16:23.200Z,-0.57
2023-02-23T04:19:10.102Z,-0.60
2023-02-23T04:21:57.228Z,-0.53
2023-02-23T04:24:41.835Z,-0.50
2023-02-23T04:27:31.399Z,-0.52
2023-02-23T04:30:25.386Z,-0.50
2023-02-23T04:33:11.079Z,-0.51
2023-02-23T04:35:57.548Z,-0.52
2023-02-23T04:38:42.032Z,-0.50
2023-02-23T04:41:24.700Z,-0.50
2023-02-23T04:44:06.710Z,-0.49
2023-02-23T04:46:46.968Z,-0.53
2023-02-23T04:49:38.472Z,-0.53
2023-02-23T04:52:35.622Z,-0.52
2023-02-23T04:55:47.429Z,-0.55
2023-02-23T05:01:49.662Z,-0.61
2023-02-23T05:04:24.879Z,-0.65
2023-02-23T05:07:16.627Z,-0.61
2023-02-23T05:10:27.920Z,-0.68
2023-02-23T05:14:03.017Z,-0.63
2023-02-23T05:16:57.134Z,-0.63
2023-02-23T05:20:10.242Z,-0.63
2023-02-23T05:23:07.409Z,-0.62
2023-02-23T05:25:41.253Z,-0.65
2023-02-23T05:28:22.724Z,-0.68
2023-02-23T05:31:08.492Z,-0.67
2023-02-23T05:33:55.743Z,-0.71
2023-02-23T05:36:58.742Z,-0.68
2023-02-23T05:39:38.433Z,-0.65
2023-02-23T05:42:16.289Z,-0.65
2023-02-23T05:45:02.436Z,-0.65
2023-02-23T05:48:05.564Z,-0.71
2023-02-23T05:50:53.675Z,-0.76
2023-02-23T05:53:41.690Z,-0.70
2023-02-23T05:56:35.715Z,-0.68
2023-02-23T05:59:09.741Z,-0.70
2023-02-23T06:01:47.947Z,-0.71
2023-02-23T06:08:29.271Z,-0.68
2023-02-23T06:11:31.516Z,-0.67
2023-02-23T06:14:18.820Z,-0.69
2023-02-23T06:17:20.772Z,-0.69
2023-02-23T06:20:25.647Z,-0.83
2023-02-23T06:23:35.333Z,-0.73
2023-02-23T06:26:54.280Z,-0.67
2023-02-23T06:33:42.107Z,-0.69
2023-02-23T06:36:23.857Z,-0.70
2023-02-23T06:39:13.147Z,-0.67
2023-02-23T06:41:54.278Z,-0.66
2023-02-23T06:44:33.182Z,-0.62
2023-02-23T06:47:06.542Z,-0.59
2023-02-23T06:49:47.782Z,-0.59
2023-02-23T06:52:28.019Z,-0.57
2023-02-23T06:55:03.451Z,-0.65
2023-02-23T06:57:45.714Z,-0.53
2023-02-23T07:10:08.023Z,-0.46
2023-02-23T07:12:35.325Z,-0.42
2023-02-23T07:15:02.392Z,-0.39
2023-02-23T07:17:29.560Z,-0.30
2023-02-23T07:19:56.562Z,-0.25
2023-02-23T07:22:25.165Z,-0.30
2023-02-23T07:24:52.281Z,-0.18
2023-02-23T07:27:19.510Z,-0.18
2023-02-23T07:29:46.768Z,-0.13
2023-02-23T07:32:13.924Z,-0.12
2023-02-23T07:34:41.218Z,-0.03
2023-02-23T07:37:08.326Z,0.03
2023-02-23T07:39:35.431Z,0.07
2023-02-23T07:42:02.623Z,0.09
2023-02-23T07:44:30.189Z,0.11
2023-02-23T07:46:57.893Z,0.13
2023-02-23T07:49:25.632Z,0.10
2023-02-23T07:51:52.740Z,0.22
2023-02-23T07:54:20.026Z,0.25
2023-02-23T07:56:47.207Z,0.33
2023-02-23T07:59:14.644Z,0.35
2023-02-23T08:01:41.719Z,0.39
2023-02-23T08:04:08.993Z,0.50
2023-02-23T08:06:36.673Z,0.54
2023-02-23T08:09:04.923Z,0.58
2023-02-23T08:11:32.334Z,0.62
2023-02-23T08:14:00.547Z,0.74
2023-02-23T08:16:29.609Z,0.84
2023-02-23T08:19:01.249Z,0.95
2023-02-23T08:21:29.877Z,1.04
2023-02-23T08:23:58.537Z,1.13
2023-02-23T08:26:26.309Z,1.24
2023-02-23T08:28:55.071Z,1.38
2023-02-23T08:31:24.664Z,1.45
2023-02-23T08:33:52.854Z,1.58
2023-02-23T08:36:21.087Z,1.67
2023-02-23T08:38:48.838Z,1.77
2023-02-23T08:41:17.171Z,1.87
2023-02-23T08:43:44.680Z,2.01
2023-02-23T08:46:11.913Z,2.12
2023-02-23T08:48:40.778Z,2.16
2023-02-23T08:51:09.367Z,2.26
2023-02-23T08:53:36.972Z,2.24
2023-02-23T08:56:07.564Z,2.25
2023-02-23T08:58:36.792Z,2.35
2023-02-23T09:01:04.349Z,2.46
2023-02-23T09:03:32.104Z,2.49
2023-02-23T09:06:06.498Z,2.53
2023-02-23T09:08:33.893Z,2.55
2023-02-23T09:11:01.098Z,2.61
2023-02-23T09:13:28.353Z,2.65
2023-02-23T09:15:55.592Z,2.71
2023-02-23T09:18:24.237Z,2.77
2023-02-23T09:20:51.731Z,2.79
2023-02-23T09:23:18.962Z,2.78
2023-02-23T09:25:46.613Z,2.80
2023-02-23T09:28:19.568Z,2.83
2023-02-23T09:30:47.628Z,2.92
2023-02-23T09:33:15.368Z,2.96
2023-02-23T09:35:42.555Z,2.98
2023-02-23T09:38:09.863Z,2.94
2023-02-23T09:40:45.873Z,2.87
2023-02-23T09:43:37.457Z,2.87
2023-02-23T09:46:16.368Z,2.93
2023-02-23T09:48:44.298Z,3.00
2023-02-23T09:51:19.128Z,3.01
2023-02-23T09:53:51.275Z,3.04
2023-02-23T09:56:33.316Z,3.06
2023-02-23T09:59:01.252Z,3.20
2023-02-23T10:01:49.307Z,3.29
2023-02-23T10:04:24.125Z,3.33
2023-02-23T10:07:06.393Z,3.31
2023-02-23T10:10:00.287Z,3.38
2023-02-23T10:12:45.160Z,3.48
2023-02-23T10:15:21.483Z,3.51
2023-02-23T10:18:09.774Z,3.52
2023-02-23T10:20:52.250Z,3.52
2023-02-23T10:23:26.448Z,3.48
2023-02-23T10:25:59.611Z,3.57
2023-02-23T10:28:31.296Z,3.66
2023-02-23T10:30:59.050Z,3.61
2023-02-23T10:33:41.947Z,3.61
2023-02-23T10:36:17.309Z,3.63
2023-02-23T10:38:45.298Z,3.69
2023-02-23T10:41:14.799Z,3.74
2023-02-23T10:43:42.566Z,3.76
2023-02-23T10:46:20.082Z,3.79
2023-02-23T10:48:49.395Z,3.90
2023-02-23T10:51:28.482Z,3.97
2023-02-23T10:53:55.787Z,4.06
2023-02-23T10:56:24.148Z,4.11
2023-02-23T10:58:57.041Z,4.15
2023-02-23T11:02:02.004Z,4.22
2023-02-23T11:04:32.891Z,4.23
2023-02-23T11:07:16.531Z,4.32
2023-02-23T11:09:47.542Z,4.30
2023-02-23T11:12:36.188Z,4.35
2023-02-23T11:15:35.209Z,4.37
2023-02-23T11:18:25.278Z,4.37
2023-02-23T11:20:53.034Z,4.40
2023-02-23T11:23:31.339Z,4.39
2023-02-23T11:26:04.608Z,4.44
2023-02-23T11:28:35.288Z,4.53
2023-02-23T11:31:19.875Z,4.59
2023-02-23T11:33:50.976Z,4.67
2023-02-23T11:36:28.098Z,4.69
2023-02-23T11:39:08.127Z,4.75
2023-02-23T11:41:37.628Z,4.81
2023-02-23T11:44:06.375Z,4.76
2023-02-23T11:46:38.148Z,4.70
2023-02-23T11:49:07.209Z,4.73
2023-02-23T11:51:38.631Z,4.81
2023-02-23T11:54:10.499Z,4.84
2023-02-23T11:56:37.734Z,5.02
2023-02-23T11:59:14.356Z,5.06
2023-02-23T12:01:46.956Z,5.07
2023-02-23T12:04:47.835Z,5.09
2023-02-23T12:07:41.665Z,5.17
2023-02-23T12:10:26.712Z,5.22
2023-02-23T12:13:04.675Z,5.21
2023-02-23T12:15:46.365Z,5.27
2023-02-23T12:18:29.339Z,5.23
2023-02-23T12:21:01.312Z,5.24
2023-02-23T12:23:33.700Z,5.26
2023-02-23T12:26:10.680Z,5.29
2023-02-23T12:28:45.873Z,5.29
2023-02-23T12:31:24.692Z,5.27
2023-02-23T12:34:36.180Z,5.24
2023-02-23T12:37:37.279Z,5.31
2023-02-23T12:40:30.412Z,5.35
2023-02-23T12:43:20.036Z,5.33
2023-02-23T12:45:56.731Z,5.34
2023-02-23T12:49:17.225Z,5.38
2023-02-23T12:51:52.137Z,5.38
2023-02-23T12:54:19.389Z,5.34
2023-02-23T12:56:58.047Z,5.40
2023-02-23T12:59:48.276Z,5.43
2023-02-23T13:02:23.128Z,5.43
2023-02-23T13:04:58.489Z,5.42
2023-02-23T13:07:49.620Z,5.40
2023-02-23T13:10:29.485Z,5.32
2023-02-23T13:13:04.956Z,5.33
2023-02-23T13:15:52.348Z,5.33
2023-02-23T13:18:31.632Z,5.31
2023-02-23T13:21:05.632Z,5.33
2023-02-23T13:23:39.901Z,5.34
2023-02-23T13:26:39.345Z,5.34
2023-02-23T13:29:29.431Z,5.37
2023-02-23T13:31:56.818Z,5.39
2023-02-23T13:34:30.311Z,5.22
2023-02-23T13:37:00.630Z,5.44
2023-02-23T13:39:33.773Z,5.46
2023-02-23T13:42:22.720Z,5.48
2023-02-23T13:45:23.295Z,5.46
2023-02-23T13:47:54.471Z,5.47
2023-02-23T13:50:47.322Z,5.48
2023-02-23T13:53:41.205Z,5.49
2023-02-23T13:56:23.721Z,5.49
2023-02-23T13:59:10.457Z,5.51
2023-02-23T14:01:45.396Z,5.53
2023-02-23T14:04:22.111Z,5.56
2023-02-23T14:07:23.469Z,5.55
2023-02-23T14:10:07.332Z,5.53
2023-02-23T14:12:38.897Z,5.51
2023-02-23T14:15:28.450Z,5.56
2023-02-23T14:18:18.819Z,5.57
2023-02-23T14:21:18.559Z,5.54
2023-02-23T14:24:04.226Z,5.55
2023-02-23T14:26:31.327Z,5.55
2023-02-23T14:29:17.452Z,5.56
2023-02-23T14:32:06.336Z,5.54
2023-02-23T14:34:52.775Z,5.55
2023-02-23T14:37:36.189Z,5.56
2023-02-23T14:40:39.855Z,5.54
2023-02-23T14:43:39.436Z,5.51
2023-02-23T14:46:27.537Z,5.47
2023-02-23T14:49:15.871Z,5.49
2023-02-23T14:51:48.700Z,5.42
2023-02-23T14:54:21.494Z,5.46
2023-02-23T14:56:51.664Z,5.45
2023-02-23T14:59:24.394Z,5.43
2023-02-23T15:01:53.084Z,5.41
2023-02-23T15:04:30.166Z,5.38
2023-02-23T15:07:01.040Z,5.37
2023-02-23T15:09:34.009Z,5.33
2023-02-23T15:12:11.687Z,5.32
2023-02-23T15:14:39.353Z,5.30
2023-02-23T15:17:07.189Z,5.31
2023-02-23T15:19:36.750Z,5.27
2023-02-23T15:22:05.950Z,5.25
2023-02-23T15:24:42.307Z,5.22
2023-02-23T15:27:27.336Z,5.23
2023-02-23T15:29:55.859Z,5.19
2023-02-23T15:32:26.243Z,5.22
2023-02-23T15:34:56.289Z,5.22
2023-02-23T15:37:37.664Z,5.21
2023-02-23T15:40:11.557Z,5.19
2023-02-23T15:42:43.832Z,5.19
2023-02-23T15:45:28.840Z,5.14
2023-02-23T15:47:59.607Z,5.14
2023-02-23T15:50:37.243Z,5.10
2023-02-23T15:53:24.186Z,5.11
2023-02-23T15:56:03.173Z,5.10
2023-02-23T15:58:33.288Z,5.07
2023-02-23T16:01:08.183Z,5.07
2023-02-23T16:03:38.560Z,5.06
2023-02-23T16:06:09.176Z,5.04
2023-02-23T16:08:37.106Z,5.01
2023-02-23T16:11:16.182Z,5.01
2023-02-23T16:13:45.213Z,5.00
2023-02-23T16:16:20.622Z,4.99
2023-02-23T16:18:53.809Z,4.93
2023-02-23T16:21:25.330Z,4.97
2023-02-23T16:23:56.113Z,4.93
2023-02-23T16:26:25.874Z,4.95
2023-02-23T16:29:01.485Z,4.96
2023-02-23T16:31:47.849Z,4.95
2023-02-23T16:34:35.790Z,4.94
2023-02-23T16:37:48.956Z,4.92
2023-02-23T16:40:16.213Z,4.92
2023-02-23T16:42:43.677Z,4.93
2023-02-23T16:45:16.414Z,4.94
2023-02-23T16:47:49.809Z,4.94
2023-02-23T16:50:21.117Z,4.94
2023-02-23T16:52:53.836Z,4.96
2023-02-23T16:55:26.425Z,4.95
2023-02-23T16:57:59.456Z,4.94
2023-02-23T17:00:29.534Z,4.95
2023-02-23T17:02:57.923Z,4.97
2023-02-23T17:05:25.189Z,4.95
2023-02-23T17:07:53.120Z,4.92
2023-02-23T17:10:26.284Z,4.93
2023-02-23T17:13:05.514Z,4.94
2023-02-23T17:15:41.528Z,4.94
2023-02-23T17:18:08.656Z,4.92
2023-02-23T17:20:35.818Z,4.77
2023-02-23T17:23:03.253Z,4.94
2023-02-23T17:25:30.995Z,4.92
2023-02-23T17:27:58.836Z,4.94
2023-02-23T17:30:26.912Z,4.90
2023-02-23T17:32:56.374Z,4.87
2023-02-23T17:35:24.114Z,4.91
2023-02-23T17:37:51.742Z,4.90
2023-02-23T17:40:33.068Z,4.88
2023-02-23T17:43:01.772Z,4.89
2023-02-23T17:45:29.550Z,4.87
2023-02-23T17:47:57.904Z,4.88
2023-02-23T17:50:27.212Z,4.87
2023-02-23T17:52:54.739Z,4.88
2023-02-23T17:55:23.809Z,4.89
2023-02-23T17:57:50.901Z,4.87
2023-02-23T18:00:19.554Z,4.88
2023-02-23T18:02:46.803Z,4.83
2023-02-23T18:05:15.709Z,4.85
2023-02-23T18:07:43.416Z,4.85
2023-02-23T18:10:11.792Z,4.82
2023-02-23T18:12:39.512Z,4.82
2023-02-23T18:15:07.551Z,4.79
2023-02-23T18:17:37.319Z,4.79
2023-02-23T18:20:06.637Z,4.79
2023-02-23T18:22:34.141Z,4.78
2023-02-23T18:25:01.357Z,4.77
2023-02-23T18:27:28.521Z,4.76
2023-02-23T18:29:55.619Z,4.76
2023-02-23T18:32:23.029Z,4.73
2023-02-23T18:34:51.296Z,4.75
2023-02-23T18:37:25.438Z,4.76
2023-02-23T18:39:54.454Z,4.77
2023-02-23T18:42:21.837Z,4.77
2023-02-23T18:44:49.012Z,4.75
2023-02-23T18:47:16.230Z,4.79
2023-02-23T18:49:43.302Z,4.80
2023-02-23T18:52:11.069Z,4.76
2023-02-23T18:54:40.453Z,4.82
2023-02-23T18:57:07.639Z,4.82
2023-02-23T18:59:34.971Z,4.79
2023-02-23T19:02:02.102Z,4.86
2023-02-23T19:04:29.207Z,4.84
2023-02-23T19:06:56.401Z,4.80
2023-02-23T19:09:23.662Z,4.87
2023-02-23T19:11:51.413Z,4.88
2023-02-23T19:14:21.989Z,4.87
2023-02-23T19:16:51.075Z,4.91
2023-02-23T19:19:18.614Z,4.92
2023-02-23T19:21:45.777Z,4.92
2023-02-23T19:24:12.923Z,4.93
2023-02-23T19:26:40.908Z,4.86
2023-02-23T19:29:08.298Z,4.88
2023-02-23T19:31:37.012Z,4.96
2023-02-23T19:34:05.214Z,4.99
2023-02-23T19:36:34.051Z,5.00
2023-02-23T19:39:10.694Z,4.98
2023-02-23T19:41:40.113Z,5.00
2023-02-23T19:44:07.507Z,4.99
2023-02-23T19:46:35.347Z,5.02
2023-02-23T19:49:04.235Z,5.06
2023-02-23T19:51:32.136Z,5.07
2023-02-23T19:53:59.644Z,5.09
2023-02-23T19:56:30.730Z,5.08
2023-02-23T19:58:59.713Z,5.12
2023-02-23T20:01:27.871Z,5.14
2023-02-23T20:03:57.020Z,5.16
2023-02-23T20:06:27.252Z,5.18
2023-02-23T20:08:55.272Z,5.17
2023-02-23T20:11:23.705Z,5.17
2023-02-23T20:13:53.139Z,5.22
2023-02-23T20:16:20.881Z,5.23
2023-02-23T20:18:48.153Z,5.26
2023-02-23T20:21:23.417Z,5.28
2023-02-23T20:23:51.365Z,5.27
2023-02-23T20:26:22.681Z,5.30
2023-02-23T20:28:52.967Z,5.31
2023-02-23T20:31:22.310Z,5.29
2023-02-23T20:33:52.503Z,5.29
2023-02-23T20:36:21.834Z,5.30
2023-02-23T20:38:48.987Z,5.31
2023-02-23T20:41:17.571Z,5.32
2023-02-23T20:43:45.935Z,5.36
2023-02-23T20:46:15.097Z,5.34
2023-02-23T20:48:42.562Z,5.38
2023-02-23T20:51:13.880Z,5.38
2023-02-23T20:53:42.136Z,5.34
2023-02-23T20:56:10.276Z,5.40
2023-02-23T20:58:37.402Z,5.41
2023-02-23T21:01:10.900Z,5.42
2023-02-23T21:03:38.139Z,5.42
2023-02-23T21:06:05.510Z,5.38
2023-02-23T21:08:32.677Z,5.42
2023-02-23T21:11:05.771Z,5.41
2023-02-23T21:13:33.399Z,5.39
2023-02-23T21:16:01.588Z,5.41
2023-02-23T21:18:30.121Z,5.42
2023-02-23T21:20:57.608Z,5.41
2023-02-23T21:23:25.780Z,5.43
2023-02-23T21:25:54.236Z,5.43
2023-02-23T21:28:21.458Z,5.44
2023-02-23T21:30:48.669Z,5.43
2023-02-23T21:33:15.880Z,5.44
2023-02-23T21:35:42.971Z,5.42
2023-02-23T21:38:10.962Z,5.45
2023-02-23T21:40:42.460Z,5.45
2023-02-23T21:43:09.694Z,5.43
2023-02-23T21:45:39.723Z,5.46
2023-02-23T21:48:06.881Z,5.45
2023-02-23T21:50:34.052Z,5.46
2023-02-23T21:53:01.328Z,5.47
2023-02-23T21:55:28.394Z,5.43
2023-02-23T21:57:56.620Z,5.46
2023-02-23T22:00:24.389Z,5.45
2023-02-23T22:02:51.813Z,5.45
2023-02-23T22:05:20.013Z,5.43
2023-02-23T22:07:55.457Z,5.33
2023-02-23T22:10:24.447Z,5.46
2023-02-23T22:12:56.282Z,5.46
2023-02-23T22:15:29.479Z,5.45
2023-02-23T22:17:56.905Z,5.47
2023-02-23T22:20:24.136Z,5.42
2023-02-23T22:22:51.478Z,5.48
2023-02-23T22:25:20.554Z,5.45
2023-02-23T22:27:48.009Z,5.44
2023-02-23T22:30:15.925Z,5.49
2023-02-23T22:32:43.321Z,5.51
2023-02-23T22:35:11.425Z,5.45
2023-02-23T22:37:39.330Z,5.47
2023-02-23T22:40:17.135Z,5.51
2023-02-23T22:42:48.600Z,5.52
2023-02-23T22:45:16.495Z,5.50
2023-02-23T22:47:43.730Z,5.53
2023-02-23T22:50:15.652Z,5.49
2023-02-23T22:52:43.319Z,5.51
2023-02-23T22:55:11.342Z,5.50
2023-02-23T22:57:40.020Z,5.53
2023-02-23T23:00:10.692Z,5.51
2023-02-23T23:02:38.080Z,5.54
2023-02-23T23:05:05.959Z,5.54
2023-02-23T23:07:34.747Z,5.54
2023-02-23T23:10:05.959Z,5.56
2023-02-23T23:12:34.739Z,5.55
2023-02-23T23:15:03.686Z,5.58
2023-02-23T23:17:32.016Z,5.59
2023-02-23T23:20:11.118Z,5.61
2023-02-23T23:22:38.848Z,5.62
2023-02-23T23:25:15.013Z,5.64
2023-02-23T23:27:44.806Z,5.65
2023-02-23T23:30:12.678Z,5.65
2023-02-23T23:32:41.028Z,5.65
2023-02-23T23:35:11.294Z,5.63
2023-02-23T23:37:40.081Z,5.62
2023-02-23T23:40:14.635Z,5.61
2023-02-23T23:42:46.798Z,5.63
2023-02-23T23:45:16.489Z,5.64
2023-02-23T23:47:47.119Z,5.64
2023-02-23T23:50:16.490Z,5.65
2023-02-23T23:52:45.198Z,5.67
2023-02-23T23:55:14.882Z,5.67
2023-02-23T23:57:42.503Z,5.66
